< < Back
Terminal Aerodrome Forecast


Current Version              Previous Versions:   1  2  3  4  5  6  7  8  9  

Terminal Aerodrome Forecast

037
FTUS44 KMRX 101720
TAFTYS
TAF
KTYS 101720Z 1018/1118 26010G20KT P6SM BKN040
     FM102000 27007KT P6SM SCT040 BKN100
     FM110400 VRB03KT P6SM -SN OVC035
      TEMPO 1108/1112 6SM -SN OVC025
     FM111200 03005KT P6SM OVC035=



Latest METAR

376
SAUS80 KWBC 111000
MTRTYS
METAR KTYS 110953Z 22006KT 10SM OVC060 M03/M07 A3015 RMK AO2 SLP220
T10331072


USA.gov is the U.S. government's official web portal to all federal, state and local government web resources and services.